Time;durP1;ratioP1;P1;durP2;ratioP2;P2;SDS_P1;SDS_P2;PMS_P1;PMS_P2;Temp;Humidity;BMP_temperature;BMP_pressure;BME280_temperature;BME280_humidity;BME280_pressure;Samples;Min_cycle;Max_cycle;Signal;HPM_P1;HPM_P2
2022/10/11 00:00:32;;;;;;;19.58;3.22;;;;;;;7.66;100.00;101306.13;5050647;28;20291;-73
2022/10/11 00:02:58;;;;;;;15.60;2.20;;;;;;;7.67;100.00;101307.81;5068659;28;20370;-72
2022/10/11 00:05:24;;;;;;;14.70;3.58;;;;;;;7.68;100.00;101313.97;5068624;28;20055;-72
2022/10/11 00:07:50;;;;;;;21.15;3.38;;;;;;;7.75;100.00;101326.63;5033599;28;20050;-72
2022/10/11 00:10:16;;;;;;;11.98;2.72;;;;;;;7.67;100.00;101312.28;5068831;28;20074;-72
2022/10/11 00:12:41;;;;;;;10.32;2.83;;;;;;;7.57;100.00;101312.22;5073281;28;20035;-72
2022/10/11 00:15:08;;;;;;;17.80;2.60;;;;;;;7.50;100.00;101311.06;5050454;28;20021;-72
2022/10/11 00:17:33;;;;;;;14.32;2.40;;;;;;;7.38;100.00;101311.09;5034186;28;20048;-72
2022/10/11 00:19:59;;;;;;;15.88;2.72;;;;;;;7.41;100.00;101323.28;5051026;28;20025;-72
2022/10/11 00:22:24;;;;;;;15.67;2.90;;;;;;;7.46;100.00;101317.59;5067589;28;20490;-72
2022/10/11 00:24:51;;;;;;;28.93;3.90;;;;;;;7.35;100.00;101315.81;5066732;28;20804;-72
2022/10/11 00:27:16;;;;;;;19.23;3.70;;;;;;;7.33;100.00;101320.44;5049513;28;20028;-72
2022/10/11 00:29:42;;;;;;;14.27;2.57;;;;;;;7.35;100.00;101321.13;5073229;28;20040;-72
2022/10/11 00:32:07;;;;;;;15.03;2.47;;;;;;;7.25;100.00;101333.50;5070063;28;20621;-72
2022/10/11 00:34:32;;;;;;;25.57;4.93;;;;;;;7.26;100.00;101327.19;5053399;28;20435;-72
2022/10/11 00:36:58;;;;;;;15.43;2.03;;;;;;;7.29;100.00;101334.94;5068390;28;20028;-72
2022/10/11 00:39:23;;;;;;;20.47;2.57;;;;;;;7.22;100.00;101341.72;5054092;28;20124;-72
2022/10/11 00:41:48;;;;;;;12.23;2.87;;;;;;;7.36;100.00;101346.75;5066558;28;20906;-72
2022/10/11 00:44:17;;;;;;;21.67;3.63;;;;;;;7.44;100.00;101352.25;5078057;28;20036;-72
2022/10/11 00:47:11;;;;;;;16.20;2.83;;;;;;;7.39;100.00;101343.81;5033200;28;20029;-72
2022/10/11 00:49:44;;;;;;;22.08;3.15;;;;;;;7.33;100.00;101347.00;5070650;28;20127;-72
2022/10/11 00:52:33;;;;;;;14.15;3.72;;;;;;;7.26;100.00;101344.00;5049771;28;20046;-72
2022/10/11 00:55:03;;;;;;;16.80;3.33;;;;;;;7.33;100.00;101354.97;5049526;28;20032;-72
2022/10/11 00:57:32;;;;;;;17.25;2.72;;;;;;;7.41;100.00;101349.84;5049150;28;20063;-72
2022/10/11 00:59:59;;;;;;;15.98;3.90;;;;;;;7.35;100.00;101353.88;5049735;28;20028;-72
2022/10/11 01:02:25;;;;;;;14.25;2.95;;;;;;;7.42;100.00;101351.53;5071789;28;20036;-72
2022/10/11 01:04:51;;;;;;;17.85;2.58;;;;;;;7.26;100.00;101351.09;5067685;28;20101;-72
2022/10/11 01:07:18;;;;;;;18.30;2.83;;;;;;;7.23;100.00;101351.38;5049165;28;20469;-72
2022/10/11 01:09:44;;;;;;;15.85;3.13;;;;;;;7.21;100.00;101367.44;5072629;28;20083;-71
2022/10/11 01:12:22;;;;;;;19.77;2.60;;;;;;;7.17;100.00;101356.22;5068279;28;20020;-71
2022/10/11 01:15:06;;;;;;;16.90;3.03;;;;;;;7.15;100.00;101363.47;5055438;28;20040;-70
2022/10/11 01:17:53;;;;;;;15.32;2.95;;;;;;;7.17;100.00;101369.50;5068603;28;20032;-71
2022/10/11 01:20:29;;;;;;;17.60;3.50;;;;;;;7.10;100.00;101365.66;5067650;28;20017;-72
2022/10/11 01:23:29;;;;;;;12.05;3.03;;;;;;;7.07;100.00;101367.69;5048777;28;20040;-71
2022/10/11 01:26:23;;;;;;;11.45;2.42;;;;;;;7.07;100.00;101379.19;5048155;28;20028;-71
2022/10/11 01:29:05;;;;;;;18.10;2.60;;;;;;;7.07;100.00;101379.19;5071624;28;20051;-71
2022/10/11 01:31:33;;;;;;;18.67;2.72;;;;;;;7.04;100.00;101391.84;5062387;28;20052;-71
2022/10/11 01:34:04;;;;;;;13.20;2.53;;;;;;;6.98;100.00;101395.84;5054726;28;20596;-72
2022/10/11 01:36:37;;;;;;;18.80;2.78;;;;;;;6.88;100.00;101389.56;5070155;28;20063;-70
2022/10/11 01:39:24;;;;;;;18.00;3.38;;;;;;;7.03;100.00;101396.31;5049862;28;20066;-71
2022/10/11 01:41:53;;;;;;;23.05;4.32;;;;;;;7.08;100.00;101401.28;5049189;28;20455;-71
2022/10/11 01:44:19;;;;;;;18.70;3.42;;;;;;;7.09;100.00;101406.44;5066084;28;20428;-72
2022/10/11 01:46:44;;;;;;;19.17;3.42;;;;;;;7.05;100.00;101407.66;5062980;28;20895;-71
2022/10/11 01:49:10;;;;;;;12.37;2.30;;;;;;;6.87;100.00;101409.13;5068731;28;20095;-71
2022/10/11 01:51:42;;;;;;;20.92;2.60;;;;;;;6.73;100.00;101392.50;5069369;28;20413;-72
2022/10/11 01:54:32;;;;;;;17.88;3.67;;;;;;;6.86;100.00;101405.66;5031661;28;20028;-72
2022/10/11 01:57:45;;;;;;;16.95;2.80;;;;;;;6.69;100.00;101393.69;5076513;28;20051;-72
2022/10/11 02:00:15;;;;;;;17.50;2.80;;;;;;;6.75;100.00;101401.19;5054812;28;20039;-71
2022/10/11 02:02:54;;;;;;;14.25;2.67;;;;;;;6.73;100.00;101407.59;5073190;28;20040;-71
2022/10/11 02:05:44;;;;;;;10.52;2.65;;;;;;;6.71;100.00;101405.03;5048216;28;20051;-71
2022/10/11 02:08:36;;;;;;;26.80;3.10;;;;;;;6.86;100.00;101407.44;5032853;28;20087;-71
2022/10/11 02:11:28;;;;;;;14.05;2.70;;;;;;;6.75;100.00;101411.78;5070917;28;20098;-71
2022/10/11 02:14:17;;;;;;;23.52;3.30;;;;;;;6.74;100.00;101420.75;5048037;28;20024;-72
2022/10/11 02:16:45;;;;;;;29.45;3.60;;;;;;;6.92;100.00;101422.88;5072116;28;20052;-72
2022/10/11 02:19:14;;;;;;;22.30;3.08;;;;;;;6.87;100.00;101430.38;5048272;28;20493;-71
2022/10/11 02:21:43;;;;;;;16.38;3.30;;;;;;;6.81;100.00;101436.16;5047915;28;20038;-71
2022/10/11 02:24:15;;;;;;;23.15;3.85;;;;;;;6.76;100.00;101424.09;5049903;28;20033;-71
2022/10/11 02:26:45;;;;;;;19.20;3.72;;;;;;;6.86;100.00;101433.97;5054267;28;20044;-71
2022/10/11 02:29:14;;;;;;;24.45;4.95;;;;;;;6.93;100.00;101435.19;5076183;28;20037;-70
2022/10/11 02:31:41;;;;;;;18.13;3.70;;;;;;;6.91;100.00;101427.34;5064504;28;20055;-71
2022/10/11 02:34:30;;;;;;;20.13;2.83;;;;;;;6.84;100.00;101427.97;5070526;28;20021;-71
2022/10/11 02:37:14;;;;;;;18.98;3.40;;;;;;;6.81;100.00;101425.53;5067782;28;20032;-71
2022/10/11 02:40:05;;;;;;;20.33;3.70;;;;;;;6.84;100.00;101431.47;5078065;28;20044;-71
2022/10/11 02:42:37;;;;;;;13.02;3.35;;;;;;;6.83;100.00;101428.91;5072797;28;20085;-71
2022/10/11 02:45:09;;;;;;;16.20;2.78;;;;;;;6.80;100.00;101437.13;5046823;28;20032;-71
2022/10/11 02:47:35;;;;;;;22.27;3.58;;;;;;;6.90;100.00;101432.78;5065265;28;20093;-72
2022/10/11 02:50:02;;;;;;;14.57;2.20;;;;;;;6.88;100.00;101429.41;5076625;28;20039;-71
2022/10/11 02:52:27;;;;;;;18.55;3.15;;;;;;;6.88;100.00;101430.25;5073864;28;20036;-72
2022/10/11 02:54:52;;;;;;;13.73;4.37;;;;;;;6.97;100.00;101431.31;5075015;28;20519;-72
2022/10/11 02:57:18;;;;;;;21.00;4.97;;;;;;;6.92;100.00;101434.34;5070622;28;20090;-72
2022/10/11 02:59:44;;;;;;;20.55;2.85;;;;;;;6.81;100.00;101436.16;5030783;28;20044;-71
2022/10/11 03:02:09;;;;;;;23.70;3.40;;;;;;;6.92;100.00;101444.97;5046945;28;20032;-71
2022/10/11 03:04:35;;;;;;;17.87;4.40;;;;;;;6.90;100.00;101435.44;5069940;28;20028;-71
2022/10/11 03:07:00;;;;;;;15.07;2.72;;;;;;;6.85;100.00;101448.22;5071151;28;20436;-71
2022/10/11 03:09:26;;;;;;;16.87;3.60;;;;;;;6.69;100.00;101452.06;5055732;28;20028;-72
2022/10/11 03:11:51;;;;;;;11.20;2.10;;;;;;;6.55;100.00;101441.69;5075562;28;20043;-71
2022/10/11 03:14:17;;;;;;;16.03;2.33;;;;;;;6.40;100.00;101437.59;5078618;28;20020;-72
2022/10/11 03:16:42;;;;;;;7.43;1.73;;;;;;;6.32;100.00;101431.06;5030417;28;20638;-71
2022/10/11 03:19:07;;;;;;;7.40;2.40;;;;;;;6.29;100.00;101441.91;5067501;28;20033;-72
2022/10/11 03:21:32;;;;;;;8.60;2.33;;;;;;;6.19;100.00;101438.28;5072329;28;20086;-72
2022/10/11 03:23:58;;;;;;;13.50;2.93;;;;;;;6.22;100.00;101447.81;5051240;28;20033;-72
2022/10/11 03:26:23;;;;;;;11.63;2.17;;;;;;;6.10;100.00;101460.19;5073644;28;20031;-71
2022/10/11 03:28:49;;;;;;;15.03;3.00;;;;;;;6.07;100.00;101452.47;5074812;28;20029;-72
2022/10/11 03:31:14;;;;;;;9.57;2.60;;;;;;;6.07;100.00;101468.38;5079418;28;20032;-72
2022/10/11 03:33:39;;;;;;;9.83;2.50;;;;;;;6.06;100.00;101471.97;5068775;28;20036;-71
2022/10/11 03:36:05;;;;;;;14.80;3.00;;;;;;;6.32;100.00;101483.25;5075458;28;20433;-71
2022/10/11 03:38:30;;;;;;;21.05;3.22;;;;;;;6.27;100.00;101482.75;5054807;28;20094;-71
2022/10/11 03:40:56;;;;;;;9.87;2.10;;;;;;;6.26;100.00;101478.44;5074405;28;20028;-72
2022/10/11 03:43:21;;;;;;;14.27;2.53;;;;;;;6.18;100.00;101486.09;5073725;28;20638;-72
2022/10/11 03:45:47;;;;;;;14.93;2.63;;;;;;;6.14;100.00;101485.50;5073717;28;20481;-72
2022/10/11 03:48:12;;;;;;;16.20;3.03;;;;;;;6.14;100.00;101488.16;5066581;28;20025;-72
2022/10/11 03:50:38;;;;;;;11.93;3.03;;;;;;;6.20;100.00;101500.94;5067422;28;20134;-72
2022/10/11 03:53:05;;;;;;;19.92;3.65;;;;;;;6.17;100.00;101505.63;5050489;28;20028;-71
2022/10/11 03:55:31;;;;;;;13.68;3.28;;;;;;;6.16;100.00;101499.50;5034051;28;20080;-71
2022/10/11 03:57:56;;;;;;;17.63;2.17;;;;;;;6.12;100.00;101498.88;5047493;28;20036;-71
2022/10/11 04:00:22;;;;;;;16.73;3.37;;;;;;;6.10;100.00;101507.91;5064025;28;20028;-71
2022/10/11 04:02:47;;;;;;;20.40;3.87;;;;;;;6.10;100.00;101510.56;5056809;28;20070;-71
2022/10/11 04:05:12;;;;;;;14.93;2.23;;;;;;;6.15;100.00;101519.00;5070861;28;20792;-71
2022/10/11 04:07:38;;;;;;;12.13;2.53;;;;;;;6.15;100.00;101521.66;5053020;28;20055;-71
2022/10/11 04:10:05;;;;;;;21.73;3.22;;;;;;;6.12;100.00;101527.19;5079552;28;20045;-71
2022/10/11 04:12:31;;;;;;;14.20;2.58;;;;;;;6.29;100.00;101531.22;5064122;28;20036;-71
2022/10/11 04:14:56;;;;;;;22.63;2.75;;;;;;;6.18;100.00;101523.22;5050093;28;20145;-72
2022/10/11 04:17:22;;;;;;;20.93;2.97;;;;;;;6.22;100.00;101530.84;5059224;28;20031;-72
2022/10/11 04:19:47;;;;;;;11.90;2.20;;;;;;;6.28;100.00;101530.38;5056705;28;20040;-72
2022/10/11 04:22:13;;;;;;;13.90;2.03;;;;;;;6.27;100.00;101546.41;5068205;28;20055;-71
2022/10/11 04:24:38;;;;;;;19.50;3.30;;;;;;;6.13;100.00;101531.53;5050442;28;20676;-71
2022/10/11 04:27:03;;;;;;;15.20;2.13;;;;;;;6.07;100.00;101526.69;5074334;28;20035;-71
2022/10/11 04:29:29;;;;;;;21.83;3.57;;;;;;;6.00;100.00;101533.41;5076308;28;20040;-71
2022/10/11 04:31:54;;;;;;;21.33;3.30;;;;;;;6.12;100.00;101540.44;5049192;28;20063;-71
2022/10/11 04:34:19;;;;;;;16.20;2.53;;;;;;;6.05;100.00;101532.09;5066480;28;20079;-71
2022/10/11 04:36:45;;;;;;;10.50;2.87;;;;;;;6.26;100.00;101536.78;5067795;28;20041;-71
2022/10/11 04:39:10;;;;;;;23.90;4.80;;;;;;;6.27;100.00;101549.91;5065576;28;20032;-72
2022/10/11 04:41:35;;;;;;;11.60;2.73;;;;;;;6.18;100.00;101553.25;5063869;28;20472;-71
2022/10/11 04:44:01;;;;;;;23.70;4.10;;;;;;;6.12;100.00;101541.28;5068810;28;20024;-72
2022/10/11 04:46:27;;;;;;;12.57;2.40;;;;;;;5.98;100.00;101546.78;5063021;28;20028;-72
2022/10/11 04:48:52;;;;;;;16.37;3.90;;;;;;;5.97;100.00;101546.88;5050356;28;20086;-72
2022/10/11 04:51:18;;;;;;;10.70;2.57;;;;;;;5.83;100.00;101539.91;5063052;28;20082;-72
2022/10/11 04:53:43;;;;;;;10.53;3.07;;;;;;;5.88;100.00;101546.56;5066167;28;20114;-72
2022/10/11 04:56:13;;;;;;;16.77;4.38;;;;;;;6.10;100.00;101551.16;5072180;28;20024;-72
2022/10/11 04:58:40;;;;;;;21.63;3.05;;;;;;;6.12;100.00;101559.00;5072596;28;20068;-72
2022/10/11 05:01:09;;;;;;;;;;;;;;;5.94;100.00;101558.56;5049776;28;20042;-72
2022/10/11 05:03:34;;;;;;;14.88;3.53;;;;;;;5.82;100.00;101560.25;5054712;28;19919;-71
2022/10/11 05:06:01;;;;;;;16.50;3.80;;;;;;;5.72;100.00;101559.25;5072726;28;20389;-71
2022/10/11 05:08:26;;;;;;;;;;;;;;;5.82;100.00;101570.88;5080727;28;20106;-72
2022/10/11 05:10:56;;;;;;;;;;;;;;;5.93;100.00;101578.88;5072820;28;20332;-72
2022/10/11 05:13:21;;;;;;;23.63;3.60;;;;;;;6.07;100.00;101585.03;5071072;28;20426;-72
2022/10/11 05:15:47;;;;;;;31.00;4.27;;;;;;;6.01;100.00;101590.75;5050367;28;20036;-72
2022/10/11 05:18:13;;;;;;;18.52;3.45;;;;;;;5.97;100.00;101589.28;5072469;28;20036;-72
2022/10/11 05:20:38;;;;;;;14.93;3.77;;;;;;;5.91;100.00;101590.56;5049391;28;20111;-72
2022/10/11 05:23:03;;;;;;;23.50;3.80;;;;;;;5.88;100.00;101588.97;5077359;28;20901;-72
2022/10/11 05:25:29;;;;;;;25.97;5.77;;;;;;;5.87;100.00;101602.34;5070923;28;20125;-72
2022/10/11 05:27:54;;;;;;;21.63;3.97;;;;;;;5.83;100.00;101604.38;5065373;28;20036;-72
2022/10/11 05:30:19;;;;;;;21.07;4.70;;;;;;;5.84;100.00;101611.34;5075599;28;20051;-71
2022/10/11 05:32:44;;;;;;;18.63;5.07;;;;;;;5.82;100.00;101607.97;5067904;28;20048;-72
2022/10/11 05:35:10;;;;;;;14.33;3.93;;;;;;;5.78;100.00;101605.66;5073856;28;20017;-72
2022/10/11 05:37:35;;;;;;;12.40;4.00;;;;;;;5.83;100.00;101617.63;5068659;28;20043;-72
2022/10/11 05:40:00;;;;;;;15.67;4.87;;;;;;;5.78;100.00;101621.53;5045440;28;20442;-72
2022/10/11 05:42:26;;;;;;;35.30;6.63;;;;;;;5.76;100.00;101619.03;5057246;28;20033;-72
2022/10/11 05:44:51;;;;;;;28.60;5.97;;;;;;;5.76;100.00;101628.75;5070180;28;20028;-72
2022/10/11 05:47:17;;;;;;;22.97;5.33;;;;;;;5.75;100.00;101627.06;5047956;28;20028;-72
2022/10/11 05:49:42;;;;;;;15.57;4.53;;;;;;;5.75;100.00;101632.38;5071688;28;20033;-72
2022/10/11 05:52:09;;;;;;;26.33;5.37;;;;;;;5.72;100.00;101626.34;5073348;28;20089;-72
2022/10/11 05:54:34;;;;;;;10.40;3.97;;;;;;;5.59;100.00;101633.44;5069366;28;20074;-72
2022/10/11 05:57:00;;;;;;;16.10;3.70;;;;;;;5.44;100.00;101629.25;5066628;28;20056;-72
2022/10/11 05:59:25;;;;;;;24.27;4.53;;;;;;;5.37;100.00;101628.00;5048085;28;20035;-72
2022/10/11 06:01:50;;;;;;;19.67;3.63;;;;;;;5.32;100.00;101624.81;5071184;28;20168;-72
2022/10/11 06:04:17;;;;;;;12.43;3.60;;;;;;;5.29;100.00;101631.16;5047692;28;20063;-72
2022/10/11 06:06:43;;;;;;;22.83;4.40;;;;;;;5.32;100.00;101624.81;5062240;28;20037;-72
2022/10/11 06:09:09;;;;;;;16.33;4.10;;;;;;;5.40;100.00;101633.91;5031526;28;20093;-71
2022/10/11 06:11:34;;;;;;;17.47;4.77;;;;;;;5.51;100.00;101641.09;5054502;28;20064;-72
2022/10/11 06:14:00;;;;;;;16.60;3.42;;;;;;;5.58;100.00;101641.53;5045312;28;20514;-71
2022/10/11 06:16:25;;;;;;;18.37;3.90;;;;;;;5.53;100.00;101647.16;5065891;28;20036;-71
2022/10/11 06:18:53;;;;;;;22.55;5.80;;;;;;;5.56;100.00;101648.72;5047528;28;20397;-72
2022/10/11 06:21:18;;;;;;;14.90;4.43;;;;;;;5.71;100.00;101655.56;5056927;28;20040;-72
2022/10/11 06:23:47;;;;;;;17.93;4.07;;;;;;;5.81;100.00;101659.28;5059291;28;20051;-72
2022/10/11 06:26:12;;;;;;;21.20;4.60;;;;;;;5.95;100.00;101670.72;5070484;28;20029;-72
2022/10/11 06:28:38;;;;;;;19.87;4.47;;;;;;;6.06;100.00;101670.81;5075526;28;20101;-71
2022/10/11 06:31:05;;;;;;;18.20;5.00;;;;;;;6.37;100.00;101676.53;5072365;28;20020;-71
2022/10/11 06:33:31;;;;;;;17.55;3.70;;;;;;;6.66;100.00;101683.19;5036391;28;20032;-71
2022/10/11 06:36:03;;;;;;;20.92;3.50;;;;;;;6.90;100.00;101696.41;5044033;28;20040;-71
2022/10/11 06:38:28;;;;;;;15.55;3.25;;;;;;;7.22;100.00;101701.13;5070391;28;20033;-72
2022/10/11 06:40:53;;;;;;;17.90;3.63;;;;;;;7.48;100.00;101701.75;5047636;28;20659;-71
2022/10/11 06:43:19;;;;;;;10.73;3.03;;;;;;;7.68;100.00;101689.59;5069513;28;20064;-71
2022/10/11 06:45:44;;;;;;;11.20;2.97;;;;;;;8.01;100.00;101687.88;5066855;28;20028;-71
2022/10/11 06:48:10;;;;;;;12.10;2.50;;;;;;;8.16;100.00;101693.78;5052532;28;20058;-71
2022/10/11 06:50:38;;;;;;;14.60;2.97;;;;;;;8.34;100.00;101692.28;5065086;28;20043;-72
2022/10/11 06:53:07;;;;;;;21.65;4.00;;;;;;;8.42;100.00;101686.34;5065429;28;20201;-72
2022/10/11 06:55:33;;;;;;;12.18;2.90;;;;;;;8.57;100.00;101668.28;5064981;28;20025;-72
2022/10/11 06:57:58;;;;;;;16.13;3.38;;;;;;;8.41;100.00;101669.56;5047119;28;20773;-72
2022/10/11 07:00:23;;;;;;;21.70;4.03;;;;;;;8.81;100.00;101673.41;5065636;28;20029;-72
2022/10/11 07:02:49;;;;;;;13.60;3.83;;;;;;;8.92;100.00;101669.81;5070422;28;20052;-72
2022/10/11 07:05:31;;;;;;;16.85;2.95;;;;;;;9.17;100.00;101666.75;5054267;28;20424;-72
2022/10/11 07:07:57;;;;;;;18.58;3.20;;;;;;;9.39;100.00;101656.91;5039667;28;20028;-72
2022/10/11 07:10:22;;;;;;;13.63;3.50;;;;;;;9.63;100.00;101652.13;5047063;28;20514;-72
2022/10/11 07:12:47;;;;;;;15.23;2.47;;;;;;;9.90;100.00;101642.66;5028884;28;20506;-72
2022/10/11 07:15:13;;;;;;;19.97;3.30;;;;;;;10.33;100.00;101638.88;5056115;28;20017;-73
2022/10/11 07:17:38;;;;;;;15.00;3.87;;;;;;;10.68;100.00;101642.81;5044989;28;20051;-72
2022/10/11 07:20:05;;;;;;;12.50;4.80;;;;;;;11.04;100.00;101637.72;5054162;28;20040;-72
2022/10/11 07:22:30;;;;;;;12.82;2.72;;;;;;;11.14;100.00;101611.78;5046567;28;20040;-72
2022/10/11 07:24:56;;;;;;;13.70;2.70;;;;;;;11.47;100.00;101597.06;5046735;28;20029;-73
2022/10/11 07:27:22;;;;;;;12.30;2.60;;;;;;;11.66;100.00;101569.38;5061851;28;20050;-72
2022/10/11 07:29:47;;;;;;;11.07;2.53;;;;;;;12.01;100.00;101533.81;5038157;28;20036;-73
2022/10/11 07:32:15;;;;;;;16.53;3.50;;;;;;;12.15;100.00;101489.63;5060614;28;20040;-73
2022/10/11 07:34:40;;;;;;;18.85;3.42;;;;;;;12.27;100.00;101449.19;5051458;28;20306;-73
2022/10/11 07:37:06;;;;;;;5.97;2.15;;;;;;;12.25;100.00;101383.28;5068842;28;20469;-73
2022/10/11 07:39:31;;;;;;;19.17;3.73;;;;;;;12.50;100.00;101370.00;5052443;28;20040;-73
2022/10/11 07:41:56;;;;;;;9.03;2.03;;;;;;;12.25;100.00;101324.38;5029011;28;20021;-73
2022/10/11 07:44:22;;;;;;;14.10;2.80;;;;;;;12.61;100.00;101312.63;5036807;28;20115;-73
2022/10/11 07:46:47;;;;;;;11.20;3.30;;;;;;;13.07;100.00;101297.03;5054789;28;20490;-73
2022/10/11 07:49:13;;;;;;;16.47;3.17;;;;;;;13.36;100.00;101256.34;5061023;28;20838;-73
2022/10/11 07:51:38;;;;;;;13.73;3.07;;;;;;;13.92;100.00;101211.63;5060385;28;20036;-72
2022/10/11 07:54:04;;;;;;;9.67;2.20;;;;;;;13.73;100.00;101153.00;5065559;28;20070;-72
2022/10/11 07:56:29;;;;;;;11.77;2.57;;;;;;;14.56;100.00;101154.25;5045581;28;20402;-72
2022/10/11 07:58:57;;;;;;;9.87;2.43;;;;;;;14.31;100.00;100969.09;5053994;28;20029;-73
2022/10/11 08:01:24;;;;;;;13.32;2.90;;;;;;;14.40;100.00;100940.31;5052856;28;20033;-73
2022/10/11 08:03:49;;;;;;;;;;;;;;;15.27;100.00;100963.88;5056793;28;20094;-72
2022/10/11 08:06:16;;;;;;;;;;;;;;;15.33;100.00;100897.72;5072368;28;20361;-73
2022/10/11 08:08:41;;;;;;;13.23;2.97;;;;;;;15.20;100.00;100739.75;5067565;28;20331;-73
2022/10/11 08:11:07;;;;;;;10.57;2.70;;;;;;;15.29;100.00;100767.31;5059419;28;20121;-73
2022/10/11 08:13:33;;;;;;;15.57;2.50;;;;;;;15.84;100.00;100841.09;5049626;28;20035;-73
2022/10/11 08:15:58;;;;;;;18.83;3.20;;;;;;;15.81;100.00;100518.50;5070249;28;20378;-73
2022/10/11 08:18:24;;;;;;;9.05;2.30;;;;;;;15.28;100.00;100650.84;5067474;28;20025;-73
2022/10/11 08:20:49;;;;;;;19.90;2.70;;;;;;;15.90;100.00;100711.09;5047182;28;20485;-73
2022/10/11 08:23:16;;;;;;;13.80;3.00;;;;;;;16.26;100.00;100742.38;5048423;28;20114;-73
2022/10/11 08:25:43;;;;;;;10.95;3.58;;;;;;;15.35;100.00;100573.72;5058819;28;20040;-72
2022/10/11 08:28:09;;;;;;;14.38;2.80;;;;;;;14.22;100.00;100489.53;5072756;28;20758;-73
2022/10/11 08:30:34;;;;;;;;;;;;;;;13.46;100.00;100891.41;5056344;28;20444;-72
2022/10/11 08:33:00;;;;;;;;;;;;;;;14.64;100.00;101057.47;5051479;28;19908;-73
2022/10/11 08:35:26;;;;;;;13.60;2.70;;;;;;;15.45;100.00;100871.97;5074915;28;19916;-72
2022/10/11 08:37:51;;;;;;;12.73;3.23;;;;;;;16.56;100.00;100796.81;5069151;28;20117;-73
2022/10/11 08:40:19;;;;;;;16.07;3.13;;;;;;;16.77;100.00;100626.00;5029519;28;20567;-73
2022/10/11 08:42:53;;;;;;;14.43;3.63;;;;;;;16.61;100.00;100572.50;5055010;28;20028;-72
2022/10/11 08:45:43;;;;;;;12.98;3.15;;;;;;;16.90;100.00;100460.72;5064481;28;20028;-73
2022/10/11 08:48:18;;;;;;;16.85;3.92;;;;;;;17.36;98.32;100456.25;5056334;28;20459;-73
2022/10/11 08:50:48;;;;;;;16.00;3.13;;;;;;;18.07;94.58;100441.72;5068499;28;20161;-73
2022/10/11 08:53:29;;;;;;;14.10;2.80;;;;;;;16.46;91.56;100058.09;5055683;28;20677;-73
2022/10/11 08:55:55;;;;;;;13.80;2.88;;;;;;;17.60;94.77;100512.16;5054525;28;20079;-72
2022/10/11 08:58:30;;;;;;;9.63;2.73;;;;;;;16.87;92.79;100324.47;5062441;28;20068;-73
2022/10/11 09:00:57;;;;;;;13.23;3.15;;;;;;;17.18;93.50;100479.31;5068474;28;20044;-73
2022/10/11 09:03:27;;;;;;;14.52;2.60;;;;;;;16.94;95.77;100582.50;5053655;28;20032;-73
2022/10/11 09:06:06;;;;;;;12.40;2.95;;;;;;;17.67;91.27;100445.47;5031957;28;20028;-72
2022/10/11 09:08:54;;;;;;;14.02;2.65;;;;;;;17.43;90.85;100448.94;5058216;28;20444;-73
2022/10/11 09:11:50;;;;;;;10.27;2.53;;;;;;;17.50;92.88;100646.75;5029860;28;20037;-72
2022/10/11 09:14:42;;;;;;;11.70;3.45;;;;;;;17.75;88.30;100454.38;5057510;28;20071;-73
2022/10/11 09:17:29;;;;;;;15.52;2.90;;;;;;;17.89;87.36;100446.00;5057126;28;20104;-72
2022/10/11 09:20:19;;;;;;;8.27;2.63;;;;;;;18.42;87.36;100570.97;5057959;28;20040;-73
2022/10/11 09:22:58;;;;;;;10.50;3.47;;;;;;;17.87;86.02;100441.88;5042277;28;20040;-73
2022/10/11 09:25:29;;;;;;;13.75;2.20;;;;;;;18.27;83.63;100363.22;5043872;28;20939;-73
2022/10/11 09:28:09;;;;;;;12.50;1.85;;;;;;;18.04;82.66;100289.03;5037722;28;20044;-73
2022/10/11 09:30:39;;;;;;;10.57;2.47;;;;;;;17.86;83.42;100375.41;5056151;28;20040;-72
2022/10/11 09:33:30;;;;;;;11.57;2.22;;;;;;;17.35;83.54;100316.97;5066924;28;20402;-72
2022/10/11 09:35:56;;;;;;;14.13;2.80;;;;;;;18.18;85.34;100648.22;5066642;28;20036;-72
2022/10/11 09:38:39;;;;;;;7.72;2.45;;;;;;;18.19;84.08;100576.94;5054487;28;20032;-72
2022/10/11 09:41:20;;;;;;;14.27;2.65;;;;;;;18.41;83.94;100626.91;5063987;28;20128;-72
2022/10/11 09:43:48;;;;;;;13.38;2.53;;;;;;;17.18;84.11;100435.34;5028788;28;20076;-72
2022/10/11 09:46:35;;;;;;;10.32;2.80;;;;;;;17.54;85.60;100631.81;5028393;28;20029;-73
2022/10/11 09:49:02;;;;;;;12.73;2.33;;;;;;;17.72;83.66;100553.66;5037864;28;20043;-73
2022/10/11 09:51:28;;;;;;;11.07;2.83;;;;;;;18.43;81.47;100559.13;5061593;28;20037;-72
2022/10/11 09:54:03;;;;;;;7.85;3.78;;;;;;;18.10;82.87;100589.88;5045219;28;20037;-73
2022/10/11 09:56:31;;;;;;;13.27;3.03;;;;;;;17.90;82.07;100546.75;5044557;28;20897;-72
2022/10/11 09:59:26;;;;;;;8.00;1.95;;;;;;;17.86;79.94;100351.94;5047305;28;20133;-72
2022/10/11 10:02:16;;;;;;;13.50;2.70;;;;;;;17.72;79.78;100334.13;5046757;28;20120;-72
2022/10/11 10:04:54;;;;;;;7.90;3.17;;;;;;;17.87;83.63;100766.75;5042969;28;20070;-73
2022/10/11 10:07:20;;;;;;;13.65;2.80;;;;;;;17.50;80.88;100468.63;5040215;28;20289;-72
2022/10/11 10:09:46;;;;;;;7.35;2.38;;;;;;;18.77;79.58;100633.56;5054720;28;20549;-73
2022/10/11 10:12:19;;;;;;;16.95;2.67;;;;;;;19.22;76.98;100525.13;5066010;28;20040;-72
2022/10/11 10:14:54;;;;;;;13.40;2.85;;;;;;;19.56;75.88;100509.34;5065851;28;20032;-72
2022/10/11 10:17:20;;;;;;;9.68;2.47;;;;;;;19.48;73.49;100318.28;5039293;28;20155;-73
2022/10/11 10:19:51;;;;;;;12.35;2.58;;;;;;;19.38;74.32;100439.81;5070284;28;20480;-72
2022/10/11 10:22:25;;;;;;;11.75;2.63;;;;;;;19.21;73.69;100371.13;5072428;28;20055;-73
2022/10/11 10:24:52;;;;;;;11.60;2.00;;;;;;;19.00;73.42;100289.41;5040979;28;20044;-72
2022/10/11 10:27:27;;;;;;;10.18;2.30;;;;;;;18.92;74.63;100446.63;5046565;28;20029;-73
2022/10/11 10:30:08;;;;;;;13.85;2.33;;;;;;;19.35;72.92;100378.84;5068765;28;20483;-72
2022/10/11 10:32:47;;;;;;;9.82;2.20;;;;;;;18.94;71.45;100100.97;5054355;28;20029;-72
2022/10/11 10:35:40;;;;;;;10.57;2.17;;;;;;;19.08;72.69;100324.25;5073689;28;20064;-72
2022/10/11 10:38:23;;;;;;;11.98;2.53;;;;;;;18.28;71.64;100048.72;5046391;28;20047;-72
2022/10/11 10:40:51;;;;;;;11.00;2.65;;;;;;;17.75;74.84;100270.78;5052051;28;20101;-73
2022/10/11 10:43:22;;;;;;;12.02;2.40;;;;;;;17.75;76.11;100519.16;5071869;28;20392;-72
2022/10/11 10:46:00;;;;;;;10.30;2.42;;;;;;;18.74;77.25;100899.00;5061319;28;20043;-72
2022/10/11 10:48:31;;;;;;;9.82;2.03;;;;;;;18.95;73.91;100551.66;5052326;28;20040;-72
2022/10/11 10:51:11;;;;;;;11.20;2.28;;;;;;;19.40;71.12;100449.34;5045914;28;20402;-73
2022/10/11 10:53:45;;;;;;;16.80;3.63;;;;;;;19.10;70.72;100310.50;5045565;28;20029;-72
2022/10/11 10:56:25;;;;;;;12.48;1.95;;;;;;;18.55;71.04;100260.00;5060343;28;20506;-72
2022/10/11 10:59:04;;;;;;;8.35;2.60;;;;;;;18.87;75.47;100879.22;5053340;28;20549;-72
2022/10/11 11:01:32;;;;;;;8.80;2.28;;;;;;;18.81;72.47;100507.66;5027819;28;20556;-72
2022/10/11 11:04:26;;;;;;;15.55;2.83;;;;;;;18.88;71.88;100496.78;5023438;28;20040;-72
2022/10/11 11:06:58;;;;;;;12.90;2.63;;;;;;;18.44;72.40;100421.03;5053038;28;20080;-72
2022/10/11 11:09:31;;;;;;;10.30;2.47;;;;;;;18.35;71.97;100428.63;5032619;28;20029;-73
2022/10/11 11:12:24;;;;;;;8.27;2.05;;;;;;;19.06;74.65;100891.00;5062208;28;20087;-72
2022/10/11 11:15:29;;;;;;;11.68;4.05;;;;;;;19.55;70.40;100551.00;5045796;28;20112;-73
2022/10/11 11:18:17;;;;;;;12.68;2.30;;;;;;;20.14;67.34;100348.91;4969758;28;20053;-72
2022/10/11 11:21:13;;;;;;;11.88;2.83;;;;;;;19.92;66.35;100231.31;5002999;28;20048;-73
2022/10/11 11:24:02;;;;;;;7.97;2.30;;;;;;;19.21;67.59;100187.94;4986407;28;20037;-73
2022/10/11 11:26:47;;;;;;;9.13;2.40;;;;;;;19.49;69.01;100492.38;5002459;28;20455;-72
2022/10/11 11:29:18;;;;;;;15.88;3.47;;;;;;;17.33;72.03;100214.66;4986495;28;20042;-72
2022/10/11 11:31:59;;;;;;;16.45;3.00;;;;;;;16.58;77.12;100611.47;4986376;28;20048;-72
2022/10/11 11:34:26;;;;;;;10.88;2.08;;;;;;;16.17;80.60;100835.13;5003098;28;20706;-72